Flight Track Log - Related Links

Times and Time Zones

All times are in EDT time to prevent confusion due to time zone crossing. See the GGN7280 flight status page for this flight to view local times or setup timezone preferences in your user account.

Time Position Orientation Groundspeed Altitude Reporting Facility
EDT Latitude Longitude Course Direction KTS MPH feet Rate Location/Type
Fri 09:38:40 AM 43.6333 -79.6167 133° Southeast 150 173 1,600  Level Toronto Center
Fri 09:39:40 AM 43.6000 -79.5667 133° Southeast 160 184 3,100 1,500 Climbing Toronto Center
Fri 09:40:40 AM 43.5833 -79.5167 115° Southeast 180 207 4,600 1,400 Climbing Toronto Center
Fri 09:41:40 AM 43.5667 -79.4500 109° East 200 230 5,900 700 Climbing Toronto Center
Fri 09:42:40 AM 43.5500 -79.3500 103° East 220 253 6,000 350 Climbing Toronto Center
Fri 09:43:40 AM 43.5167 -79.2667 119° Southeast 240 276 6,600 1,100 Climbing Toronto Center
Fri 09:44:40 AM 43.5000 -79.2000 109° East 220 253 8,200 1,400 Climbing Toronto Center
Fri 09:45:40 AM 43.4833 -79.1000 103° East 220 253 9,400 1,250 Climbing Toronto Center
Fri 09:46:40 AM 43.4667 -79.0333 109° East 220 253 10,700 1,350 Climbing Toronto Center
Fri 09:47:40 AM 43.4333 -78.9500 119° Southeast 220 253 12,100 1,400 Climbing Toronto Center
Fri 09:48:40 AM 43.4333 -78.8833 90° East 240 276 13,500 1,300 Climbing Toronto Center
Fri 09:49:40 AM 43.4167 -78.7667 101° East 240 276 14,700 1,200 Climbing Toronto Center
Fri 09:50:40 AM 43.4167 -78.7000 90° East 240 276 15,900 1,200 Climbing Toronto Center
Fri 09:51:40 AM 43.4000 -78.6000 103° East 250 288 17,100 1,150 Climbing Toronto Center
Fri 09:52:40 AM 43.3833 -78.4833 101° East 250 288 18,200 1,100 Climbing Toronto Center
Fri 09:53:40 AM 43.3667 -78.4000 105° East 250 288 19,300 1,050 Climbing Toronto Center
Fri 09:54:40 AM 43.3500 -78.3000 103° East 250 288 20,300 1,000 Climbing Toronto Center
Fri 09:55:40 AM 43.3500 -78.2167 90° East 250 288 21,300 950 Climbing Toronto Center
Fri 09:56:40 AM 43.3333 -78.1167 103° East 260 299 22,200 750 Climbing Toronto Center
Fri 09:57:40 AM 43.3333 -78.0000 90° East 260 299 22,800 400 Climbing Toronto Center
Fri 09:58:40 AM 43.3167 -77.9167 105° East 260 299 23,000 100 Climbing Toronto Center
Fri 09:59:40 AM 43.3000 -77.8000 101° East 280 322 23,000  Level Toronto Center
Fri 10:00:40 AM 43.3000 -77.7167 90° East 280 322 23,000  Level Toronto Center
Fri 10:01:40 AM 43.2833 -77.6000 101° East 280 322 23,000  Level Toronto Center
Fri 10:02:40 AM 43.2667 -77.5000 103° East 280 322 23,000  Level Toronto Center
Fri 10:03:40 AM 43.2500 -77.3833 101° East 280 322 23,000  Level Toronto Center
Fri 10:04:40 AM 43.2333 -77.3000 105° East 280 322 23,000  Level Toronto Center
Fri 10:05:40 AM 43.2167 -77.1833 101° East 280 322 23,000  Level Toronto Center
Fri 10:06:40 AM 43.2167 -77.1000 90° East 280 322 23,000  Level Toronto Center
Fri 10:07:40 AM 43.2000 -76.9833 101° East 280 322 23,000  Level Toronto Center
Fri 10:08:40 AM 43.1833 -76.8667 101° East 280 322 23,000  Level Toronto Center
Fri 10:09:40 AM 43.1833 -76.7833 90° East 280 322 23,000  Level Toronto Center
Fri 10:10:40 AM 43.1500 -76.6667 111° Southeast 280 322 23,000  Level Toronto Center
Fri 10:11:40 AM 43.1500 -76.5667 90° East 280 322 23,000  Level Toronto Center
Fri 10:12:40 AM 43.1333 -76.4500 101° East 280 322 23,000  Level Toronto Center
Fri 10:13:40 AM 43.1167 -76.3500 103° East 280 322 23,000  Level Toronto Center
Fri 10:14:40 AM 43.1000 -76.2500 103° East 280 322 23,000  Level Toronto Center
Fri 10:15:40 AM 43.1000 -76.1333 90° East 280 322 23,000 -250 Level Toronto Center
Fri 10:16:40 AM 43.0667 -76.0333 114° Southeast 280 322 22,500 -600 Descending Toronto Center
Fri 10:17:40 AM 43.0500 -75.9333 103° East 300 345 21,800 -900 Descending Toronto Center
Fri 10:18:40 AM 43.0333 -75.8000 100° East 310 357 20,700 -950 Descending Toronto Center
Fri 10:19:40 AM 43.0333 -75.6833 90° East 320 368 19,900 -850 Descending Toronto Center
Fri 10:20:40 AM 43.0000 -75.5500 109° East 330 380 19,000 -900 Descending Toronto Center
Fri 10:21:40 AM 42.9833 -75.4333 101° East 320 368 18,100 -850 Descending Toronto Center
Fri 10:22:40 AM 42.9667 -75.3333 103° East 330 380 17,300 -850 Descending Toronto Center
Fri 10:23:40 AM 42.9667 -75.1833 90° East 320 368 16,400 -1,000 Descending Toronto Center
Fri 10:24:40 AM 42.9333 -75.0833 114° Southeast 320 368 15,300 -1,150 Descending Toronto Center
Fri 10:25:40 AM 42.9500 -74.9333 81° East 330 380 14,100 -1,133 Descending Toronto Center
Fri 10:26:10 AM 42.9736 -74.9261 13° North 334 384 13,600 -868 Descending Boston Center
Fri 10:26:56 AM 42.9794 -74.8411 85° East 318 366 13,000 -1,132 Descending Boston Center
Fri 10:27:56 AM 42.9928 -74.7081 82° East 326 375 11,600 -950 Descending Boston Center
Fri 10:28:56 AM 43.0031 -74.6036 82° East 321 369 11,100 -300 Descending Boston Center
Fri 10:29:56 AM 43.0178 -74.4847 80° East 302 348 11,000 -50 Descending Boston Center
Fri 10:30:56 AM 43.0278 -74.3856 82° East 288 331 11,000 -700 Level Boston Center
Fri 10:31:56 AM 43.0403 -74.2667 82° East 288 331 9,600 -1,100 Descending Boston Center
Fri 10:32:56 AM 43.0500 -74.1647 83° East 297 342 8,800 -990 Descending Boston Center
Fri 10:33:33 AM 43.0575 -74.0883 82° East 292 336 8,000 -1,237 Descending Boston Center
Fri 10:34:33 AM 43.0275 -73.9936 113° Southeast 280 322 6,800 -1,388 Descending Boston Center
Fri 10:35:34 AM 42.9847 -73.9217 129° Southeast 247 284 5,200 -1,377 Descending Boston Center
Fri 10:36:35 AM 42.9419 -73.8469 128° Southeast 236 272 4,000 -1,211 Descending Boston Center
Fri 10:37:23 AM 42.8986 -73.8089 147° Southeast 221 254 3,000 -1,037 Descending Boston Center
Fri 10:37:56 AM 42.8736 -73.8083 179° South 202 232 2,600 -774 Descending Boston Center
Fri 10:38:56 AM 42.8175 -73.8017 175° South 202 232 1,800 -800 Descending Boston Center
Fri 10:41:00 AM 42.7491 -73.8020 179° South  Level Estimated
Fri 10:48:00 AM 42.7491 -73.8020 North  Level Estimated
Fri 10:49:00 AM 42.7491 -73.8020 North  Level Estimated
Fri 10:50:00 AM 42.7491 -73.8020 North  Level Estimated

Login

Don't have an account? Register now (free) for customized features, flight alerts, and more!